createdAt,value
2022-08-03T00:01:38.697Z,26.01
2022-08-03T00:04:06.671Z,26.08
2022-08-03T00:06:37.129Z,26.10
2022-08-03T00:09:05.907Z,26.00
2022-08-03T00:11:33.333Z,25.88
2022-08-03T00:14:01.451Z,25.80
2022-08-03T00:16:28.770Z,25.77
2022-08-03T00:18:56.102Z,25.74
2022-08-03T00:21:23.279Z,25.71
2022-08-03T00:23:50.754Z,25.61
2022-08-03T00:26:20.996Z,25.49
2022-08-03T00:28:49.029Z,25.59
2022-08-03T00:31:16.347Z,25.49
2022-08-03T00:33:59.264Z,25.54
2022-08-03T00:36:30.574Z,25.46
2022-08-03T00:38:57.742Z,25.35
2022-08-03T00:41:24.980Z,25.20
2022-08-03T00:43:52.345Z,25.23
2022-08-03T00:46:22.604Z,25.18
2022-08-03T00:48:50.622Z,25.15
2022-08-03T00:51:19.290Z,25.16
2022-08-03T00:53:46.651Z,25.25
2022-08-03T00:56:17.820Z,25.11
2022-08-03T00:58:46.567Z,25.14
2022-08-03T01:01:15.417Z,25.15
2022-08-03T01:03:42.794Z,25.09
2022-08-03T01:06:13.575Z,25.17
2022-08-03T01:09:14.165Z,25.22
2022-08-03T01:12:00.106Z,25.21
2022-08-03T01:14:44.537Z,25.36
2022-08-03T01:17:25.169Z,25.33
2022-08-03T01:20:14.543Z,25.40
2022-08-03T01:23:00.548Z,25.59
2022-08-03T01:26:06.247Z,25.64
2022-08-03T01:28:58.395Z,25.60
2022-08-03T01:33:02.784Z,25.64
2022-08-03T01:34:56.450Z,25.67
2022-08-03T01:37:32.080Z,25.67
2022-08-03T01:40:02.389Z,25.52
2022-08-03T01:42:31.700Z,25.38
2022-08-03T01:45:01.271Z,25.44
2022-08-03T01:47:30.815Z,25.46
2022-08-03T01:49:59.286Z,25.57
2022-08-03T01:52:27.855Z,25.54
2022-08-03T01:54:55.879Z,25.40
2022-08-03T01:57:25.512Z,25.45
2022-08-03T01:59:55.937Z,25.43
2022-08-03T02:02:33.138Z,25.42
2022-08-03T02:05:04.314Z,25.61
2022-08-03T02:07:33.144Z,25.76
2022-08-03T02:10:03.009Z,25.63
2022-08-03T02:12:33.901Z,25.67
2022-08-03T02:15:23.225Z,25.83
2022-08-03T02:17:50.990Z,25.87
2022-08-03T02:20:19.685Z,25.95
2022-08-03T02:22:47.362Z,25.90
2022-08-03T02:25:16.272Z,25.95
2022-08-03T02:27:49.425Z,25.82
2022-08-03T02:30:17.168Z,25.85
2022-08-03T02:32:51.811Z,25.93
2022-08-03T02:35:23.466Z,25.86
2022-08-03T02:37:56.239Z,25.97
2022-08-03T02:40:28.239Z,25.87
2022-08-03T02:43:03.870Z,25.59
2022-08-03T02:45:33.071Z,25.70
2022-08-03T02:48:03.238Z,25.60
2022-08-03T02:50:31.938Z,25.62
2022-08-03T02:53:01.806Z,25.50
2022-08-03T02:55:30.737Z,25.36
2022-08-03T02:58:01.482Z,25.21
2022-08-03T03:00:31.947Z,25.19
2022-08-03T03:03:02.905Z,25.16
2022-08-03T03:05:55.339Z,25.19
2022-08-03T03:08:26.213Z,25.22
2022-08-03T03:10:58.455Z,25.19
2022-08-03T03:13:28.468Z,25.22
2022-08-03T03:15:59.673Z,25.20
2022-08-03T03:18:29.207Z,25.24
2022-08-03T03:20:58.143Z,25.38
2022-08-03T03:23:26.363Z,25.41
2022-08-03T03:25:56.182Z,25.39
2022-08-03T03:28:25.189Z,25.44
2022-08-03T03:30:53.478Z,25.37
2022-08-03T03:33:22.846Z,25.38
2022-08-03T03:35:51.948Z,25.45
2022-08-03T03:38:20.003Z,25.44
2022-08-03T03:40:47.759Z,25.55
2022-08-03T03:43:15.268Z,25.57
2022-08-03T03:45:43.356Z,25.66
2022-08-03T03:48:11.254Z,25.77
2022-08-03T03:50:41.082Z,25.85
2022-08-03T03:53:13.758Z,25.96
2022-08-03T03:55:57.907Z,25.99
2022-08-03T03:58:28.185Z,25.95
2022-08-03T04:00:55.455Z,25.84
2022-08-03T04:03:23.457Z,25.93
2022-08-03T04:06:09.711Z,25.99
2022-08-03T04:08:55.204Z,26.00
2022-08-03T04:12:01.258Z,26.13
2022-08-03T04:14:35.384Z,26.04
2022-08-03T04:17:04.014Z,26.29
2022-08-03T04:19:38.770Z,26.27
2022-08-03T04:22:11.434Z,26.24
2022-08-03T04:24:43.451Z,25.92
2022-08-03T04:27:14.525Z,25.86
2022-08-03T04:29:48.441Z,25.75
2022-08-03T04:32:17.828Z,25.94
2022-08-03T04:34:46.208Z,26.02
2022-08-03T04:37:25.592Z,26.14
2022-08-03T04:39:57.575Z,26.14
2022-08-03T04:42:26.035Z,26.11
2022-08-03T04:45:00.844Z,26.12
2022-08-03T04:47:34.922Z,26.14
2022-08-03T04:50:05.597Z,26.23
2022-08-03T04:52:37.143Z,26.26
2022-08-03T04:55:04.788Z,26.21
2022-08-03T04:57:32.159Z,26.26
2022-08-03T05:00:02.996Z,26.34
2022-08-03T05:02:35.177Z,26.34
2022-08-03T05:05:02.489Z,26.52
2022-08-03T05:07:35.953Z,26.54
2022-08-03T05:10:10.167Z,26.67
2022-08-03T05:12:46.733Z,26.66
2022-08-03T05:15:15.404Z,26.73
2022-08-03T05:17:42.963Z,26.83
2022-08-03T05:20:11.416Z,26.82
2022-08-03T05:22:38.851Z,26.89
2022-08-03T05:25:06.708Z,26.87
2022-08-03T05:27:33.895Z,26.96
2022-08-03T05:30:30.810Z,26.95
2022-08-03T05:32:49.612Z,26.88
2022-08-03T05:36:02.728Z,26.91
2022-08-03T05:38:04.067Z,27.01
2022-08-03T05:40:33.212Z,27.04
2022-08-03T05:43:01.946Z,27.10
2022-08-03T05:45:29.341Z,27.17
2022-08-03T05:47:56.718Z,27.23
2022-08-03T05:50:24.254Z,27.20
2022-08-03T05:52:51.662Z,27.21
2022-08-03T05:55:19.255Z,27.26
2022-08-03T05:57:48.146Z,27.30
2022-08-03T06:00:17.284Z,27.10
2022-08-03T06:02:45.590Z,27.11
2022-08-03T06:05:13.129Z,27.00
2022-08-03T06:07:40.424Z,27.07
2022-08-03T06:10:37.024Z,27.04
2022-08-03T06:12:57.640Z,26.95
2022-08-03T06:15:25.063Z,27.06
2022-08-03T06:17:52.610Z,27.15
2022-08-03T06:20:21.263Z,27.25
2022-08-03T06:23:00.465Z,27.25
2022-08-03T06:25:29.047Z,27.44
2022-08-03T06:27:56.553Z,27.34
2022-08-03T06:30:23.863Z,27.44
2022-08-03T06:32:52.145Z,27.41
2022-08-03T06:35:20.614Z,27.55
2022-08-03T06:37:52.120Z,27.66
2022-08-03T06:40:29.422Z,27.71
2022-08-03T06:42:59.168Z,27.75
2022-08-03T06:45:31.991Z,27.78
2022-08-03T06:48:06.848Z,27.95
2022-08-03T06:50:35.901Z,27.92
2022-08-03T06:53:04.338Z,28.07
2022-08-03T06:55:32.619Z,28.10
2022-08-03T06:58:03.203Z,28.13
2022-08-03T07:00:31.183Z,28.12
2022-08-03T07:02:58.693Z,28.15
2022-08-03T07:05:26.018Z,28.14
2022-08-03T07:07:57.904Z,28.06
2022-08-03T07:10:25.509Z,28.10
2022-08-03T07:12:56.568Z,28.14
2022-08-03T07:15:54.560Z,28.27
2022-08-03T07:18:12.603Z,28.34
2022-08-03T07:20:40.337Z,28.34
2022-08-03T07:23:07.522Z,28.47
2022-08-03T07:25:34.725Z,28.50
2022-08-03T07:28:03.644Z,28.55
2022-08-03T07:30:31.061Z,28.65
2022-08-03T07:32:58.333Z,28.62
2022-08-03T07:35:26.539Z,28.60
2022-08-03T07:37:55.132Z,28.69
2022-08-03T07:40:23.091Z,28.76
2022-08-03T07:42:53.497Z,28.76
2022-08-03T07:45:23.618Z,28.89
2022-08-03T07:47:53.222Z,28.93
2022-08-03T07:50:23.043Z,29.05
2022-08-03T07:52:52.303Z,29.09
2022-08-03T07:55:22.007Z,29.15
2022-08-03T07:58:08.152Z,29.25
2022-08-03T08:00:36.421Z,29.31
2022-08-03T08:03:04.887Z,29.39
2022-08-03T08:05:32.483Z,29.47
2022-08-03T08:08:03.342Z,29.48
2022-08-03T08:10:31.020Z,29.52
2022-08-03T08:12:58.740Z,29.61
2022-08-03T08:15:26.129Z,29.71
2022-08-03T08:17:55.723Z,29.88
2022-08-03T08:20:28.704Z,29.99
2022-08-03T08:23:09.588Z,29.97
2022-08-03T08:25:53.292Z,30.06
2022-08-03T08:28:31.016Z,30.06
2022-08-03T08:31:01.191Z,30.11
2022-08-03T08:33:37.635Z,30.07
2022-08-03T08:36:15.080Z,30.21
2022-08-03T08:38:45.144Z,30.26
2022-08-03T08:41:14.752Z,30.25
2022-08-03T08:43:42.614Z,30.16
2022-08-03T08:46:23.628Z,30.18
2022-08-03T08:48:52.962Z,30.24
2022-08-03T08:51:21.854Z,30.25
2022-08-03T08:53:54.000Z,30.26
2022-08-03T08:56:25.893Z,30.16
2022-08-03T08:58:59.378Z,30.20
2022-08-03T09:01:27.491Z,30.28
2022-08-03T09:03:55.378Z,30.36
2022-08-03T09:06:23.600Z,30.39
2022-08-03T09:08:51.447Z,30.42
2022-08-03T09:11:51.784Z,30.40
2022-08-03T09:14:36.677Z,30.49
2022-08-03T09:17:04.168Z,30.56
2022-08-03T09:19:33.067Z,30.50
2022-08-03T09:22:18.752Z,30.59
2022-08-03T09:25:21.700Z,30.59
2022-08-03T09:27:46.605Z,30.56
2022-08-03T09:30:33.175Z,30.44
2022-08-03T09:33:08.307Z,30.57
2022-08-03T09:35:57.778Z,30.55
2022-08-03T09:38:27.638Z,30.54
2022-08-03T09:40:59.836Z,30.56
2022-08-03T09:43:29.057Z,30.49
2022-08-03T09:46:04.324Z,30.58
2022-08-03T09:48:35.148Z,30.57
2022-08-03T09:51:13.627Z,30.62
2022-08-03T09:53:59.696Z,30.54
2022-08-03T09:56:45.352Z,30.63
2022-08-03T09:59:14.611Z,30.60
2022-08-03T10:01:42.750Z,30.53
2022-08-03T10:04:15.279Z,30.57
2022-08-03T10:06:45.425Z,30.57
2022-08-03T10:09:16.718Z,30.61
2022-08-03T10:11:47.020Z,30.56
2022-08-03T10:14:20.289Z,30.66
2022-08-03T10:16:48.374Z,30.69
2022-08-03T10:19:16.705Z,30.65
2022-08-03T10:21:59.238Z,30.62
2022-08-03T10:24:29.704Z,30.67
2022-08-03T10:27:02.671Z,30.72
2022-08-03T10:29:34.084Z,30.66
2022-08-03T10:32:05.923Z,30.65
2022-08-03T10:34:42.602Z,30.77
2022-08-03T10:37:14.352Z,30.70
2022-08-03T10:39:53.639Z,30.73
2022-08-03T10:42:27.353Z,30.77
2022-08-03T10:45:13.493Z,30.84
2022-08-03T10:47:41.813Z,30.91
2022-08-03T10:50:10.407Z,30.88
2022-08-03T10:52:54.627Z,31.00
2022-08-03T10:55:51.017Z,31.17
2022-08-03T10:58:37.246Z,31.21
2022-08-03T11:01:12.582Z,31.23
2022-08-03T11:03:55.204Z,31.35
2022-08-03T11:06:25.000Z,31.41
2022-08-03T11:09:12.902Z,31.38
2022-08-03T11:11:43.527Z,31.42
2022-08-03T11:14:14.898Z,31.39
2022-08-03T11:16:48.428Z,31.47
2022-08-03T11:19:24.301Z,31.55
2022-08-03T11:21:56.530Z,31.53
2022-08-03T11:24:42.797Z,31.61
2022-08-03T11:27:19.571Z,31.56
2022-08-03T11:29:57.671Z,31.56
2022-08-03T11:32:41.278Z,31.55
2022-08-03T11:35:35.663Z,31.54
2022-08-03T11:38:05.658Z,31.59
2022-08-03T11:40:37.399Z,31.49
2022-08-03T11:43:10.419Z,31.45
2022-08-03T11:45:38.350Z,31.42
2022-08-03T11:48:17.171Z,31.39
2022-08-03T11:50:45.685Z,31.47
2022-08-03T11:53:18.574Z,31.48
2022-08-03T11:55:50.622Z,31.40
2022-08-03T11:59:15.398Z,31.38
2022-08-03T12:01:21.227Z,31.33
2022-08-03T12:03:50.959Z,31.42
2022-08-03T12:06:19.479Z,31.40
2022-08-03T12:08:47.060Z,31.29
2022-08-03T12:11:16.307Z,31.27
2022-08-03T12:14:44.209Z,31.20
2022-08-03T12:16:36.870Z,31.09
2022-08-03T12:19:07.074Z,31.14
2022-08-03T12:21:34.467Z,31.10
2022-08-03T12:24:04.947Z,31.08
2022-08-03T12:26:56.802Z,31.06
2022-08-03T12:29:26.774Z,31.06
2022-08-03T12:31:56.070Z,31.00
2022-08-03T12:34:23.601Z,30.97
2022-08-03T12:36:53.152Z,30.99
2022-08-03T12:39:24.452Z,31.07
2022-08-03T12:41:55.976Z,31.11
2022-08-03T12:44:31.486Z,31.17
2022-08-03T12:46:59.919Z,31.08
2022-08-03T12:49:30.487Z,30.98
2022-08-03T12:52:05.309Z,30.90
2022-08-03T12:54:36.242Z,30.68
2022-08-03T12:57:16.350Z,30.64
2022-08-03T12:59:53.510Z,30.56
2022-08-03T13:02:24.085Z,30.59
2022-08-03T13:04:54.514Z,30.56
2022-08-03T13:07:23.175Z,30.47
2022-08-03T13:09:54.641Z,30.50
2022-08-03T13:12:24.553Z,30.55
2022-08-03T13:14:57.397Z,30.56
2022-08-03T13:17:25.858Z,30.57
2022-08-03T13:19:53.689Z,30.55
2022-08-03T13:22:23.493Z,30.60
2022-08-03T13:24:53.825Z,30.55
2022-08-03T13:28:10.976Z,30.58
2022-08-03T13:30:09.239Z,30.72
2022-08-03T13:32:36.601Z,30.76
2022-08-03T13:35:04.779Z,30.79
2022-08-03T13:37:32.616Z,30.80
2022-08-03T13:40:02.754Z,30.77
2022-08-03T13:42:32.611Z,30.80
2022-08-03T13:45:01.255Z,30.74
2022-08-03T13:47:31.533Z,30.77
2022-08-03T13:50:00.050Z,30.79
2022-08-03T13:52:33.797Z,30.78
2022-08-03T13:55:05.719Z,30.83
2022-08-03T13:58:11.502Z,30.90
2022-08-03T14:00:27.751Z,30.80
2022-08-03T14:03:04.028Z,30.85
2022-08-03T14:05:33.597Z,30.68
2022-08-03T14:08:03.104Z,30.83
2022-08-03T14:10:37.656Z,30.79
2022-08-03T14:13:06.401Z,30.93
2022-08-03T14:15:38.035Z,30.90
2022-08-03T14:18:15.633Z,30.89
2022-08-03T14:20:49.015Z,30.89
2022-08-03T14:23:19.423Z,30.96
2022-08-03T14:25:51.939Z,31.01
2022-08-03T14:28:23.049Z,31.23
2022-08-03T14:30:54.948Z,31.14
2022-08-03T14:33:23.630Z,31.14
2022-08-03T14:35:52.270Z,31.18
2022-08-03T14:38:20.399Z,31.22
2022-08-03T14:40:48.175Z,31.25
2022-08-03T14:43:18.170Z,31.18
2022-08-03T14:45:45.535Z,31.11
2022-08-03T14:50:26.520Z,31.14
2022-08-03T14:51:00.421Z,31.18
2022-08-03T14:53:29.219Z,31.19
2022-08-03T14:55:56.710Z,31.14
2022-08-03T14:58:27.716Z,31.12
2022-08-03T15:00:56.065Z,31.10
2022-08-03T15:03:25.199Z,31.07
2022-08-03T15:05:54.401Z,31.02
2022-08-03T15:08:23.460Z,31.07
2022-08-03T15:10:50.964Z,31.19
2022-08-03T15:13:20.780Z,31.22
2022-08-03T15:15:48.588Z,31.21
2022-08-03T15:18:16.108Z,31.13
2022-08-03T15:20:45.508Z,31.17
2022-08-03T15:23:15.349Z,31.13
2022-08-03T15:26:28.962Z,31.16
2022-08-03T15:28:32.072Z,31.01
2022-08-03T15:30:59.284Z,31.03
2022-08-03T15:33:26.535Z,31.00
2022-08-03T15:35:54.245Z,30.97
2022-08-03T15:38:26.176Z,30.80
2022-08-03T15:40:55.339Z,30.88
2022-08-03T15:43:23.503Z,30.90
2022-08-03T15:46:12.637Z,30.99
2022-08-03T15:48:39.858Z,30.93
2022-08-03T15:51:09.573Z,30.91
2022-08-03T15:53:37.250Z,30.94
2022-08-03T15:56:10.640Z,30.82
2022-08-03T15:59:04.855Z,30.85
2022-08-03T16:01:28.468Z,30.78
2022-08-03T16:03:55.632Z,30.76
2022-08-03T16:06:35.509Z,30.71
2022-08-03T16:09:24.138Z,30.64
2022-08-03T16:11:53.816Z,30.62
2022-08-03T16:14:32.256Z,30.55
2022-08-03T16:17:04.204Z,30.57
2022-08-03T16:19:31.672Z,30.59
2022-08-03T16:21:59.437Z,30.57
2022-08-03T16:24:28.485Z,30.52
2022-08-03T16:26:56.566Z,30.38
2022-08-03T16:29:24.240Z,30.31
2022-08-03T16:31:52.793Z,30.18
2022-08-03T16:34:20.902Z,30.17
2022-08-03T16:36:48.272Z,30.14
2022-08-03T16:39:15.705Z,30.16
2022-08-03T16:41:54.303Z,30.11
2022-08-03T16:44:30.799Z,30.12
2022-08-03T16:46:59.315Z,30.19
2022-08-03T16:49:55.395Z,30.20
2022-08-03T16:52:16.734Z,30.23
2022-08-03T16:54:53.276Z,30.24
2022-08-03T16:57:56.461Z,30.14
2022-08-03T17:00:10.651Z,29.88
2022-08-03T17:02:41.155Z,29.72
2022-08-03T17:05:15.844Z,29.47
2022-08-03T17:07:47.008Z,29.24
2022-08-03T17:10:22.037Z,28.71
2022-08-03T17:12:54.887Z,28.60
2022-08-03T17:15:51.709Z,28.43
2022-08-03T17:18:14.467Z,27.95
2022-08-03T17:20:45.079Z,27.63
2022-08-03T17:23:40.020Z,27.62
2022-08-03T17:26:21.142Z,27.53
2022-08-03T17:28:57.463Z,27.51
2022-08-03T17:31:32.123Z,27.57
2022-08-03T17:34:13.977Z,27.77
2022-08-03T17:37:03.225Z,27.91
2022-08-03T17:39:55.635Z,28.01
2022-08-03T17:42:29.444Z,27.78
2022-08-03T17:45:02.358Z,27.75
2022-08-03T17:47:42.165Z,27.77
2022-08-03T17:50:24.342Z,27.70
2022-08-03T17:53:07.439Z,27.59
2022-08-03T17:55:55.230Z,27.44
2022-08-03T17:58:39.593Z,27.40
2022-08-03T18:02:01.825Z,27.07
2022-08-03T18:04:30.019Z,26.92
2022-08-03T18:07:11.266Z,26.77
2022-08-03T18:10:03.350Z,26.52
2022-08-03T18:12:41.724Z,26.24
2022-08-03T18:15:21.386Z,26.17
2022-08-03T18:17:58.110Z,26.22
2022-08-03T18:20:41.076Z,26.28
2022-08-03T18:23:24.983Z,26.26
2022-08-03T18:26:01.434Z,26.14
2022-08-03T18:28:29.802Z,25.91
2022-08-03T18:30:58.256Z,25.81
2022-08-03T18:34:18.954Z,25.92
2022-08-03T18:36:21.613Z,25.97
2022-08-03T18:38:52.148Z,25.94
2022-08-03T18:41:33.370Z,25.86
2022-08-03T18:44:08.719Z,25.64
2022-08-03T18:47:15.981Z,25.36
2022-08-03T18:50:05.877Z,25.29
2022-08-03T18:52:53.141Z,25.23
2022-08-03T18:55:33.502Z,25.18
2022-08-03T18:58:34.459Z,25.20
2022-08-03T19:01:57.552Z,25.13
2022-08-03T19:04:12.198Z,25.04
2022-08-03T19:09:40.852Z,24.60
2022-08-03T19:12:30.662Z,24.39
2022-08-03T19:15:12.747Z,24.34
2022-08-03T19:17:53.233Z,24.46
2022-08-03T19:20:28.209Z,24.52
2022-08-03T19:22:57.952Z,24.50
2022-08-03T19:25:34.246Z,24.57
2022-08-03T19:28:07.229Z,24.92
2022-08-03T19:30:39.043Z,24.98
2022-08-03T19:33:08.343Z,25.23
2022-08-03T19:35:51.720Z,25.22
2022-08-03T19:38:29.210Z,25.16
2022-08-03T19:41:01.263Z,25.11
2022-08-03T19:43:52.627Z,25.30
2022-08-03T19:46:30.571Z,25.49
2022-08-03T19:49:20.123Z,25.71
2022-08-03T19:51:58.599Z,25.75
2022-08-03T19:54:53.396Z,25.82
2022-08-03T19:57:24.817Z,25.92
2022-08-03T19:59:53.930Z,25.90
2022-08-03T20:02:26.836Z,26.10
2022-08-03T20:04:57.285Z,26.21
2022-08-03T20:07:26.128Z,26.34
2022-08-03T20:09:56.459Z,26.27
2022-08-03T20:12:29.108Z,26.18
2022-08-03T20:14:58.919Z,26.14
2022-08-03T20:17:57.143Z,26.00
2022-08-03T20:20:23.463Z,25.97
2022-08-03T20:22:57.809Z,26.06
2022-08-03T20:25:57.235Z,26.10
2022-08-03T20:28:34.202Z,26.07
2022-08-03T20:31:01.950Z,25.92
2022-08-03T20:36:20.441Z,25.76
2022-08-03T20:38:48.442Z,25.70
2022-08-03T20:41:17.693Z,25.58
2022-08-03T20:43:46.139Z,25.41
2022-08-03T20:46:30.861Z,25.24
2022-08-03T20:49:04.166Z,25.21
2022-08-03T20:51:53.086Z,25.36
2022-08-03T20:54:29.902Z,25.30
2022-08-03T20:57:04.190Z,25.14
2022-08-03T20:59:50.563Z,25.03
2022-08-03T21:02:29.483Z,24.99
2022-08-03T21:05:03.491Z,24.98
2022-08-03T21:08:05.111Z,25.02
2022-08-03T21:10:39.028Z,24.81
2022-08-03T21:13:10.648Z,24.64
2022-08-03T21:13:12.351Z,25.88
2022-08-03T21:13:19.097Z,24.98
2022-08-03T21:16:12.730Z,24.73
2022-08-03T21:18:46.488Z,24.51
2022-08-03T21:21:16.497Z,24.49
2022-08-03T21:23:49.077Z,24.34
2022-08-03T21:26:22.245Z,24.51
2022-08-03T21:28:51.746Z,24.60
2022-08-03T21:31:25.134Z,24.83
2022-08-03T21:33:59.754Z,24.94
2022-08-03T21:36:29.327Z,24.93
2022-08-03T21:38:57.700Z,25.04
2022-08-03T21:41:27.481Z,25.07
2022-08-03T21:43:54.743Z,25.02
2022-08-03T21:46:23.406Z,25.00
2022-08-03T21:50:04.785Z,25.12
2022-08-03T21:51:49.685Z,25.27
2022-08-03T21:54:20.405Z,25.41
2022-08-03T21:56:48.727Z,25.42
2022-08-03T21:59:20.342Z,25.48
2022-08-03T22:01:51.319Z,25.44
2022-08-03T22:04:45.851Z,25.43
2022-08-03T22:07:10.734Z,25.46
2022-08-03T22:09:38.116Z,25.35
2022-08-03T22:12:05.824Z,25.32
2022-08-03T22:14:33.862Z,25.35
2022-08-03T22:17:03.337Z,25.30
2022-08-03T22:19:33.888Z,25.23
2022-08-03T22:22:05.032Z,25.20
2022-08-03T22:24:35.380Z,25.08
2022-08-03T22:27:21.961Z,24.99
2022-08-03T22:29:50.387Z,25.04
2022-08-03T22:32:17.656Z,25.01
2022-08-03T22:34:47.558Z,25.08
2022-08-03T22:37:18.721Z,24.94
2022-08-03T22:39:46.047Z,24.99
2022-08-03T22:42:14.165Z,25.05
2022-08-03T22:44:41.429Z,24.90
2022-08-03T22:47:09.936Z,24.92
2022-08-03T22:49:38.101Z,24.98
2022-08-03T22:52:07.597Z,24.92
2022-08-03T22:54:36.265Z,24.89
2022-08-03T22:57:05.324Z,24.85
2022-08-03T22:59:41.407Z,24.76
2022-08-03T23:02:21.685Z,24.80
2022-08-03T23:04:52.859Z,24.67
2022-08-03T23:07:27.732Z,24.64
2022-08-03T23:09:56.930Z,24.58
2022-08-03T23:12:24.743Z,24.68
2022-08-03T23:14:56.817Z,24.83
2022-08-03T23:17:26.120Z,24.92
2022-08-03T23:19:55.729Z,24.76
2022-08-03T23:22:29.297Z,24.68
2022-08-03T23:24:59.662Z,24.70
2022-08-03T23:27:27.956Z,24.71
2022-08-03T23:29:57.728Z,24.69
2022-08-03T23:32:29.991Z,24.68
2022-08-03T23:35:20.744Z,24.77
2022-08-03T23:38:04.257Z,24.69
2022-08-03T23:40:37.176Z,24.59
2022-08-03T23:43:05.765Z,24.54
2022-08-03T23:45:36.390Z,24.47
2022-08-03T23:48:03.681Z,24.44
2022-08-03T23:50:43.753Z,24.43
2022-08-03T23:53:21.731Z,24.32
2022-08-03T23:56:01.153Z,24.37
2022-08-03T23:58:52.142Z,24.32
